sensor_id;sensor_type;location;lat;lon;timestamp;temperature;humidity
55207;DHT22;41079;52.856;6.534;2022-10-17T00:01:04;12.60;99.90
55207;DHT22;41079;52.856;6.534;2022-10-17T00:03:31;12.60;99.90
55207;DHT22;41079;52.856;6.534;2022-10-17T00:05:56;12.60;99.90
55207;DHT22;41079;52.856;6.534;2022-10-17T00:08:22;12.60;99.90
55207;DHT22;41079;52.856;6.534;2022-10-17T00:10:59;12.60;99.90
55207;DHT22;41079;52.856;6.534;2022-10-17T00:13:25;12.60;99.90
55207;DHT22;41079;52.856;6.534;2022-10-17T00:15:51;12.70;99.90
55207;DHT22;41079;52.856;6.534;2022-10-17T00:18:16;12.70;99.90
55207;DHT22;41079;52.856;6.534;2022-10-17T00:20:42;12.70;99.90
55207;DHT22;41079;52.856;6.534;2022-10-17T00:23:07;12.70;99.90
55207;DHT22;41079;52.856;6.534;2022-10-17T00:25:33;12.70;99.90
55207;DHT22;41079;52.856;6.534;2022-10-17T00:27:59;12.70;99.90
55207;DHT22;41079;52.856;6.534;2022-10-17T00:30:24;12.70;99.90
55207;DHT22;41079;52.856;6.534;2022-10-17T00:32:50;12.80;99.90
55207;DHT22;41079;52.856;6.534;2022-10-17T00:35:16;12.80;99.90
55207;DHT22;41079;52.856;6.534;2022-10-17T00:37:41;12.80;99.90
55207;DHT22;41079;52.856;6.534;2022-10-17T00:40:08;12.80;99.90
55207;DHT22;41079;52.856;6.534;2022-10-17T00:42:34;12.80;99.90
55207;DHT22;41079;52.856;6.534;2022-10-17T00:47:38;12.90;99.90
55207;DHT22;41079;52.856;6.534;2022-10-17T00:50:05;13.00;99.90
55207;DHT22;41079;52.856;6.534;2022-10-17T00:52:32;13.00;99.90
55207;DHT22;41079;52.856;6.534;2022-10-17T00:55:18;13.00;99.90
55207;DHT22;41079;52.856;6.534;2022-10-17T00:57:44;13.10;99.90
55207;DHT22;41079;52.856;6.534;2022-10-17T01:00:12;13.10;99.90
55207;DHT22;41079;52.856;6.534;2022-10-17T01:02:38;13.10;99.90
55207;DHT22;41079;52.856;6.534;2022-10-17T01:05:05;13.20;99.90
55207;DHT22;41079;52.856;6.534;2022-10-17T01:07:32;13.20;99.90
55207;DHT22;41079;52.856;6.534;2022-10-17T01:09:57;13.30;99.90
55207;DHT22;41079;52.856;6.534;2022-10-17T01:18:19;13.40;99.90
55207;DHT22;41079;52.856;6.534;2022-10-17T01:32:00;13.50;99.90
55207;DHT22;41079;52.856;6.534;2022-10-17T01:34:38;13.40;99.90
55207;DHT22;41079;52.856;6.534;2022-10-17T01:40:06;13.20;99.90
55207;DHT22;41079;52.856;6.534;2022-10-17T01:43:14;13.20;99.90
55207;DHT22;41079;52.856;6.534;2022-10-17T01:45:56;13.10;99.90
55207;DHT22;41079;52.856;6.534;2022-10-17T01:48:26;13.10;99.90
55207;DHT22;41079;52.856;6.534;2022-10-17T01:51:00;13.00;99.90
55207;DHT22;41079;52.856;6.534;2022-10-17T01:53:37;13.10;99.90
55207;DHT22;41079;52.856;6.534;2022-10-17T01:56:05;13.00;99.90
55207;DHT22;41079;52.856;6.534;2022-10-17T01:58:40;13.00;99.90
55207;DHT22;41079;52.856;6.534;2022-10-17T02:01:10;12.90;99.90
55207;DHT22;41079;52.856;6.534;2022-10-17T02:03:38;13.00;99.90
55207;DHT22;41079;52.856;6.534;2022-10-17T02:06:06;12.90;99.90
55207;DHT22;41079;52.856;6.534;2022-10-17T02:08:44;12.80;99.90
55207;DHT22;41079;52.856;6.534;2022-10-17T02:11:30;12.80;99.90
55207;DHT22;41079;52.856;6.534;2022-10-17T02:14:31;12.80;99.90
55207;DHT22;41079;52.856;6.534;2022-10-17T02:17:40;12.80;99.90
55207;DHT22;41079;52.856;6.534;2022-10-17T02:25:50;12.60;99.90
55207;DHT22;41079;52.856;6.534;2022-10-17T02:28:38;12.60;99.90
55207;DHT22;41079;52.856;6.534;2022-10-17T02:31:25;12.60;99.90
55207;DHT22;41079;52.856;6.534;2022-10-17T02:33:55;12.60;99.90
55207;DHT22;41079;52.856;6.534;2022-10-17T02:36:26;12.60;99.90
55207;DHT22;41079;52.856;6.534;2022-10-17T02:38:54;12.60;99.90
55207;DHT22;41079;52.856;6.534;2022-10-17T02:41:22;12.60;99.90
55207;DHT22;41079;52.856;6.534;2022-10-17T02:43:49;12.60;99.90
55207;DHT22;41079;52.856;6.534;2022-10-17T02:46:18;12.70;99.90
55207;DHT22;41079;52.856;6.534;2022-10-17T02:48:53;12.70;99.90
55207;DHT22;41079;52.856;6.534;2022-10-17T02:51:35;12.70;99.90
55207;DHT22;41079;52.856;6.534;2022-10-17T02:54:17;12.70;99.90
55207;DHT22;41079;52.856;6.534;2022-10-17T02:57:17;12.70;99.90
55207;DHT22;41079;52.856;6.534;2022-10-17T02:59:44;12.70;99.90
55207;DHT22;41079;52.856;6.534;2022-10-17T03:02:10;12.80;99.90
55207;DHT22;41079;52.856;6.534;2022-10-17T03:04:36;12.80;99.90
55207;DHT22;41079;52.856;6.534;2022-10-17T03:07:02;12.80;99.90
55207;DHT22;41079;52.856;6.534;2022-10-17T03:09:27;12.70;99.90
55207;DHT22;41079;52.856;6.534;2022-10-17T03:11:53;12.80;99.90
55207;DHT22;41079;52.856;6.534;2022-10-17T03:14:18;12.80;99.90
55207;DHT22;41079;52.856;6.534;2022-10-17T03:16:44;12.80;99.90
55207;DHT22;41079;52.856;6.534;2022-10-17T03:19:09;12.80;99.90
55207;DHT22;41079;52.856;6.534;2022-10-17T03:21:35;12.80;99.90
55207;DHT22;41079;52.856;6.534;2022-10-17T03:24:03;12.80;99.90
55207;DHT22;41079;52.856;6.534;2022-10-17T03:26:29;12.80;99.90
55207;DHT22;41079;52.856;6.534;2022-10-17T03:28:54;12.80;99.90
55207;DHT22;41079;52.856;6.534;2022-10-17T03:31:21;12.70;99.90
55207;DHT22;41079;52.856;6.534;2022-10-17T03:33:47;12.80;99.90
55207;DHT22;41079;52.856;6.534;2022-10-17T03:36:15;12.80;99.90
55207;DHT22;41079;52.856;6.534;2022-10-17T03:38:41;12.80;99.90
55207;DHT22;41079;52.856;6.534;2022-10-17T03:41:07;12.80;99.90
55207;DHT22;41079;52.856;6.534;2022-10-17T03:43:33;12.90;99.90
55207;DHT22;41079;52.856;6.534;2022-10-17T03:46:00;12.80;99.90
55207;DHT22;41079;52.856;6.534;2022-10-17T03:48:27;12.90;99.90
55207;DHT22;41079;52.856;6.534;2022-10-17T03:51:01;12.90;99.90
55207;DHT22;41079;52.856;6.534;2022-10-17T03:53:27;12.80;99.90
55207;DHT22;41079;52.856;6.534;2022-10-17T03:55:53;12.80;99.90
55207;DHT22;41079;52.856;6.534;2022-10-17T03:58:18;12.90;99.90
55207;DHT22;41079;52.856;6.534;2022-10-17T04:00:44;12.90;99.90
55207;DHT22;41079;52.856;6.534;2022-10-17T04:03:09;12.80;99.90
55207;DHT22;41079;52.856;6.534;2022-10-17T04:05:35;12.90;99.90
55207;DHT22;41079;52.856;6.534;2022-10-17T04:08:01;13.00;99.90
55207;DHT22;41079;52.856;6.534;2022-10-17T04:10:26;13.00;99.90
55207;DHT22;41079;52.856;6.534;2022-10-17T04:12:52;12.90;99.90
55207;DHT22;41079;52.856;6.534;2022-10-17T04:15:17;13.00;99.90
55207;DHT22;41079;52.856;6.534;2022-10-17T04:17:43;13.00;99.90
55207;DHT22;41079;52.856;6.534;2022-10-17T04:20:09;13.00;99.90
55207;DHT22;41079;52.856;6.534;2022-10-17T04:22:35;13.00;99.90
55207;DHT22;41079;52.856;6.534;2022-10-17T04:25:00;13.00;99.90
55207;DHT22;41079;52.856;6.534;2022-10-17T04:27:26;13.00;99.90
55207;DHT22;41079;52.856;6.534;2022-10-17T04:29:51;13.00;99.90
55207;DHT22;41079;52.856;6.534;2022-10-17T04:32:17;13.00;99.90
55207;DHT22;41079;52.856;6.534;2022-10-17T04:34:42;13.00;99.90
55207;DHT22;41079;52.856;6.534;2022-10-17T04:37:08;13.10;99.90
55207;DHT22;41079;52.856;6.534;2022-10-17T04:39:33;13.10;99.90
55207;DHT22;41079;52.856;6.534;2022-10-17T04:41:59;13.20;99.90
55207;DHT22;41079;52.856;6.534;2022-10-17T04:44:25;13.20;99.90
55207;DHT22;41079;52.856;6.534;2022-10-17T04:46:50;13.20;99.90
55207;DHT22;41079;52.856;6.534;2022-10-17T04:49:16;13.20;99.90
55207;DHT22;41079;52.856;6.534;2022-10-17T04:51:41;13.30;99.90
55207;DHT22;41079;52.856;6.534;2022-10-17T04:54:07;13.30;99.90
55207;DHT22;41079;52.856;6.534;2022-10-17T04:56:32;13.30;99.90
55207;DHT22;41079;52.856;6.534;2022-10-17T04:58:58;13.30;99.90
55207;DHT22;41079;52.856;6.534;2022-10-17T05:01:24;13.30;99.90
55207;DHT22;41079;52.856;6.534;2022-10-17T05:03:50;13.40;99.90
55207;DHT22;41079;52.856;6.534;2022-10-17T05:06:22;13.40;99.90
55207;DHT22;41079;52.856;6.534;2022-10-17T05:08:48;13.40;99.90
55207;DHT22;41079;52.856;6.534;2022-10-17T05:11:22;13.50;99.90
55207;DHT22;41079;52.856;6.534;2022-10-17T05:13:53;13.50;99.90
55207;DHT22;41079;52.856;6.534;2022-10-17T05:16:19;13.60;99.90
55207;DHT22;41079;52.856;6.534;2022-10-17T05:18:51;13.70;99.90
55207;DHT22;41079;52.856;6.534;2022-10-17T05:21:17;13.70;99.90
55207;DHT22;41079;52.856;6.534;2022-10-17T05:23:42;13.80;99.90
55207;DHT22;41079;52.856;6.534;2022-10-17T05:26:08;13.80;99.90
55207;DHT22;41079;52.856;6.534;2022-10-17T05:28:34;13.90;99.90
55207;DHT22;41079;52.856;6.534;2022-10-17T05:31:04;13.90;99.90
55207;DHT22;41079;52.856;6.534;2022-10-17T05:33:30;13.90;99.90
55207;DHT22;41079;52.856;6.534;2022-10-17T05:35:56;14.00;99.90
55207;DHT22;41079;52.856;6.534;2022-10-17T05:38:22;14.00;99.90
55207;DHT22;41079;52.856;6.534;2022-10-17T05:40:48;14.00;99.90
55207;DHT22;41079;52.856;6.534;2022-10-17T05:43:13;14.00;99.90
55207;DHT22;41079;52.856;6.534;2022-10-17T05:45:39;14.10;99.90
55207;DHT22;41079;52.856;6.534;2022-10-17T05:48:05;14.10;99.90
55207;DHT22;41079;52.856;6.534;2022-10-17T05:50:31;14.10;99.90
55207;DHT22;41079;52.856;6.534;2022-10-17T05:52:56;14.20;99.90
55207;DHT22;41079;52.856;6.534;2022-10-17T05:55:22;14.10;99.90
55207;DHT22;41079;52.856;6.534;2022-10-17T05:57:48;14.20;99.90
55207;DHT22;41079;52.856;6.534;2022-10-17T06:00:18;14.30;99.90
55207;DHT22;41079;52.856;6.534;2022-10-17T06:02:44;14.40;99.90
55207;DHT22;41079;52.856;6.534;2022-10-17T06:05:11;14.50;99.90
55207;DHT22;41079;52.856;6.534;2022-10-17T06:07:36;14.50;99.90
55207;DHT22;41079;52.856;6.534;2022-10-17T06:10:02;14.60;99.90
55207;DHT22;41079;52.856;6.534;2022-10-17T06:12:28;14.60;99.90
55207;DHT22;41079;52.856;6.534;2022-10-17T06:14:54;14.70;99.90
55207;DHT22;41079;52.856;6.534;2022-10-17T06:17:19;14.70;99.90
55207;DHT22;41079;52.856;6.534;2022-10-17T06:19:45;14.70;99.90
55207;DHT22;41079;52.856;6.534;2022-10-17T06:22:10;14.80;99.90
55207;DHT22;41079;52.856;6.534;2022-10-17T06:24:36;14.80;99.90
55207;DHT22;41079;52.856;6.534;2022-10-17T06:27:02;14.80;99.90
55207;DHT22;41079;52.856;6.534;2022-10-17T06:29:27;14.90;99.90
55207;DHT22;41079;52.856;6.534;2022-10-17T06:31:53;14.90;99.90
55207;DHT22;41079;52.856;6.534;2022-10-17T06:34:19;14.90;99.90
55207;DHT22;41079;52.856;6.534;2022-10-17T06:36:44;14.90;99.90
55207;DHT22;41079;52.856;6.534;2022-10-17T06:39:10;15.00;99.90
55207;DHT22;41079;52.856;6.534;2022-10-17T06:41:35;15.00;99.90
55207;DHT22;41079;52.856;6.534;2022-10-17T06:44:01;15.00;99.90
55207;DHT22;41079;52.856;6.534;2022-10-17T06:46:32;15.00;99.90
55207;DHT22;41079;52.856;6.534;2022-10-17T06:48:58;15.10;99.90
55207;DHT22;41079;52.856;6.534;2022-10-17T06:51:23;15.10;99.90
55207;DHT22;41079;52.856;6.534;2022-10-17T06:53:49;15.10;99.90
55207;DHT22;41079;52.856;6.534;2022-10-17T06:56:14;15.20;99.90
55207;DHT22;41079;52.856;6.534;2022-10-17T06:58:40;15.20;99.90
55207;DHT22;41079;52.856;6.534;2022-10-17T07:01:12;15.20;99.90
55207;DHT22;41079;52.856;6.534;2022-10-17T07:03:39;15.30;99.90
55207;DHT22;41079;52.856;6.534;2022-10-17T07:06:05;15.30;99.90
55207;DHT22;41079;52.856;6.534;2022-10-17T07:08:31;15.30;99.90
55207;DHT22;41079;52.856;6.534;2022-10-17T07:10:57;15.40;99.90
55207;DHT22;41079;52.856;6.534;2022-10-17T07:13:23;15.40;99.90
55207;DHT22;41079;52.856;6.534;2022-10-17T07:15:49;15.50;99.90
55207;DHT22;41079;52.856;6.534;2022-10-17T07:18:14;15.50;99.90
55207;DHT22;41079;52.856;6.534;2022-10-17T07:20:40;15.60;99.90
55207;DHT22;41079;52.856;6.534;2022-10-17T07:23:06;15.60;99.90
55207;DHT22;41079;52.856;6.534;2022-10-17T07:25:31;15.70;99.90
55207;DHT22;41079;52.856;6.534;2022-10-17T07:27:57;15.80;99.90
55207;DHT22;41079;52.856;6.534;2022-10-17T07:30:23;15.90;99.90
55207;DHT22;41079;52.856;6.534;2022-10-17T07:32:52;15.90;99.90
55207;DHT22;41079;52.856;6.534;2022-10-17T07:35:19;15.90;99.90
55207;DHT22;41079;52.856;6.534;2022-10-17T07:37:44;16.00;99.90
55207;DHT22;41079;52.856;6.534;2022-10-17T07:40:10;16.00;99.90
55207;DHT22;41079;52.856;6.534;2022-10-17T07:42:36;16.10;99.90
55207;DHT22;41079;52.856;6.534;2022-10-17T07:45:03;16.20;99.90
55207;DHT22;41079;52.856;6.534;2022-10-17T07:47:28;16.30;99.90
55207;DHT22;41079;52.856;6.534;2022-10-17T07:49:56;16.30;99.90
55207;DHT22;41079;52.856;6.534;2022-10-17T07:52:21;16.30;99.90
55207;DHT22;41079;52.856;6.534;2022-10-17T07:54:47;16.40;99.90
55207;DHT22;41079;52.856;6.534;2022-10-17T07:57:12;16.30;99.90
55207;DHT22;41079;52.856;6.534;2022-10-17T07:59:38;16.30;99.90
55207;DHT22;41079;52.856;6.534;2022-10-17T08:02:04;16.40;99.90
55207;DHT22;41079;52.856;6.534;2022-10-17T08:04:32;16.40;99.90
55207;DHT22;41079;52.856;6.534;2022-10-17T08:06:59;16.50;99.90
55207;DHT22;41079;52.856;6.534;2022-10-17T08:09:25;16.60;99.90
55207;DHT22;41079;52.856;6.534;2022-10-17T08:11:50;16.70;99.90
55207;DHT22;41079;52.856;6.534;2022-10-17T08:14:16;16.80;99.90
55207;DHT22;41079;52.856;6.534;2022-10-17T08:16:42;16.90;99.90
55207;DHT22;41079;52.856;6.534;2022-10-17T08:19:08;16.90;99.90
55207;DHT22;41079;52.856;6.534;2022-10-17T08:21:36;16.90;99.90
55207;DHT22;41079;52.856;6.534;2022-10-17T08:24:02;16.90;99.90
55207;DHT22;41079;52.856;6.534;2022-10-17T08:26:28;17.00;99.90
55207;DHT22;41079;52.856;6.534;2022-10-17T08:28:55;17.00;99.90
55207;DHT22;41079;52.856;6.534;2022-10-17T08:31:21;16.90;99.90
55207;DHT22;41079;52.856;6.534;2022-10-17T08:33:48;16.90;99.90
55207;DHT22;41079;52.856;6.534;2022-10-17T08:36:18;16.90;99.90
55207;DHT22;41079;52.856;6.534;2022-10-17T08:38:44;16.90;99.90
55207;DHT22;41079;52.856;6.534;2022-10-17T08:46:29;16.90;99.90
55207;DHT22;41079;52.856;6.534;2022-10-17T08:48:58;16.90;99.90
55207;DHT22;41079;52.856;6.534;2022-10-17T08:51:29;16.90;99.90
55207;DHT22;41079;52.856;6.534;2022-10-17T08:54:14;16.90;99.90
55207;DHT22;41079;52.856;6.534;2022-10-17T08:56:45;17.00;99.90
55207;DHT22;41079;52.856;6.534;2022-10-17T08:59:13;17.00;99.90
55207;DHT22;41079;52.856;6.534;2022-10-17T09:02:07;16.90;99.90
55207;DHT22;41079;52.856;6.534;2022-10-17T09:07:47;16.90;99.90
55207;DHT22;41079;52.856;6.534;2022-10-17T09:10:24;17.00;99.90
55207;DHT22;41079;52.856;6.534;2022-10-17T09:13:35;16.90;99.90
55207;DHT22;41079;52.856;6.534;2022-10-17T09:16:20;16.90;99.90
55207;DHT22;41079;52.856;6.534;2022-10-17T09:19:16;16.90;99.90
55207;DHT22;41079;52.856;6.534;2022-10-17T09:22:03;16.90;99.90
55207;DHT22;41079;52.856;6.534;2022-10-17T09:24:48;16.90;99.90
55207;DHT22;41079;52.856;6.534;2022-10-17T09:27:35;17.00;99.90
55207;DHT22;41079;52.856;6.534;2022-10-17T09:32:44;17.00;99.90
55207;DHT22;41079;52.856;6.534;2022-10-17T09:35:13;17.00;99.90
55207;DHT22;41079;52.856;6.534;2022-10-17T09:37:40;17.00;99.90
55207;DHT22;41079;52.856;6.534;2022-10-17T09:40:07;17.00;99.90
55207;DHT22;41079;52.856;6.534;2022-10-17T09:42:37;17.00;99.90
55207;DHT22;41079;52.856;6.534;2022-10-17T09:50:33;17.00;99.90
55207;DHT22;41079;52.856;6.534;2022-10-17T09:53:14;16.90;99.90
55207;DHT22;41079;52.856;6.534;2022-10-17T09:55:46;16.90;99.90
55207;DHT22;41079;52.856;6.534;2022-10-17T09:58:13;16.80;99.90
55207;DHT22;41079;52.856;6.534;2022-10-17T10:00:43;16.80;99.90
55207;DHT22;41079;52.856;6.534;2022-10-17T10:03:18;16.80;99.90
55207;DHT22;41079;52.856;6.534;2022-10-17T10:06:05;16.70;99.90
55207;DHT22;41079;52.856;6.534;2022-10-17T10:08:36;16.70;99.90
55207;DHT22;41079;52.856;6.534;2022-10-17T10:11:13;16.70;99.90
55207;DHT22;41079;52.856;6.534;2022-10-17T10:13:38;16.60;99.90
55207;DHT22;41079;52.856;6.534;2022-10-17T10:16:40;16.60;99.90
55207;DHT22;41079;52.856;6.534;2022-10-17T10:19:48;16.60;99.90
55207;DHT22;41079;52.856;6.534;2022-10-17T10:22:14;16.60;99.90
55207;DHT22;41079;52.856;6.534;2022-10-17T10:24:40;16.60;99.90
55207;DHT22;41079;52.856;6.534;2022-10-17T10:27:12;16.60;99.90
55207;DHT22;41079;52.856;6.534;2022-10-17T10:29:49;16.60;99.90
55207;DHT22;41079;52.856;6.534;2022-10-17T10:32:20;16.50;99.90
55207;DHT22;41079;52.856;6.534;2022-10-17T10:34:56;16.50;99.90
55207;DHT22;41079;52.856;6.534;2022-10-17T10:37:28;16.50;99.90
55207;DHT22;41079;52.856;6.534;2022-10-17T10:40:00;16.50;99.90
55207;DHT22;41079;52.856;6.534;2022-10-17T10:42:33;16.50;99.90
55207;DHT22;41079;52.856;6.534;2022-10-17T10:47:55;16.50;99.90
55207;DHT22;41079;52.856;6.534;2022-10-17T10:50:36;16.40;99.90
55207;DHT22;41079;52.856;6.534;2022-10-17T10:53:24;16.40;99.90
55207;DHT22;41079;52.856;6.534;2022-10-17T10:55:53;16.40;99.90
55207;DHT22;41079;52.856;6.534;2022-10-17T10:58:36;16.40;99.90
55207;DHT22;41079;52.856;6.534;2022-10-17T11:06:26;16.50;99.90
55207;DHT22;41079;52.856;6.534;2022-10-17T11:11:38;16.50;99.90
55207;DHT22;41079;52.856;6.534;2022-10-17T11:17:02;16.50;99.90
55207;DHT22;41079;52.856;6.534;2022-10-17T11:19:42;16.50;99.90
55207;DHT22;41079;52.856;6.534;2022-10-17T11:22:25;16.50;99.90
55207;DHT22;41079;52.856;6.534;2022-10-17T11:24:57;16.50;99.90
55207;DHT22;41079;52.856;6.534;2022-10-17T11:27:26;16.50;99.90
55207;DHT22;41079;52.856;6.534;2022-10-17T11:29:52;16.50;99.90
55207;DHT22;41079;52.856;6.534;2022-10-17T11:32:37;16.50;99.90
55207;DHT22;41079;52.856;6.534;2022-10-17T11:35:25;16.50;99.90
55207;DHT22;41079;52.856;6.534;2022-10-17T11:40:44;16.50;99.90
55207;DHT22;41079;52.856;6.534;2022-10-17T11:43:23;16.50;99.90
55207;DHT22;41079;52.856;6.534;2022-10-17T11:45:55;16.50;99.90
55207;DHT22;41079;52.856;6.534;2022-10-17T11:48:28;16.50;99.90
55207;DHT22;41079;52.856;6.534;2022-10-17T11:51:10;16.50;99.90
55207;DHT22;41079;52.856;6.534;2022-10-17T11:53:44;16.60;99.90
55207;DHT22;41079;52.856;6.534;2022-10-17T11:56:11;16.60;99.90
55207;DHT22;41079;52.856;6.534;2022-10-17T11:58:46;16.60;99.90
55207;DHT22;41079;52.856;6.534;2022-10-17T12:01:23;16.60;99.90
55207;DHT22;41079;52.856;6.534;2022-10-17T12:04:11;16.70;99.90
55207;DHT22;41079;52.856;6.534;2022-10-17T12:12:31;17.00;99.90
55207;DHT22;41079;52.856;6.534;2022-10-17T12:18:10;17.10;99.90
55207;DHT22;41079;52.856;6.534;2022-10-17T12:20:40;17.20;99.90
55207;DHT22;41079;52.856;6.534;2022-10-17T12:25:51;17.20;99.90
55207;DHT22;41079;52.856;6.534;2022-10-17T12:34:00;17.30;99.90
55207;DHT22;41079;52.856;6.534;2022-10-17T12:52:15;17.00;99.90
55207;DHT22;41079;52.856;6.534;2022-10-17T12:54:44;17.00;99.90
55207;DHT22;41079;52.856;6.534;2022-10-17T13:00:12;17.00;99.90
55207;DHT22;41079;52.856;6.534;2022-10-17T13:02:40;16.90;99.90
55207;DHT22;41079;52.856;6.534;2022-10-17T13:05:21;16.90;99.90
55207;DHT22;41079;52.856;6.534;2022-10-17T13:07:49;16.80;99.90
55207;DHT22;41079;52.856;6.534;2022-10-17T13:10:24;16.80;99.90
55207;DHT22;41079;52.856;6.534;2022-10-17T13:12:54;16.80;99.90
55207;DHT22;41079;52.856;6.534;2022-10-17T13:15:23;16.80;99.90
55207;DHT22;41079;52.856;6.534;2022-10-17T13:17:57;16.70;99.90
55207;DHT22;41079;52.856;6.534;2022-10-17T13:20:24;16.70;99.90
55207;DHT22;41079;52.856;6.534;2022-10-17T13:22:53;16.70;99.90
55207;DHT22;41079;52.856;6.534;2022-10-17T13:25:20;16.70;99.90
55207;DHT22;41079;52.856;6.534;2022-10-17T13:27:47;16.60;99.90
55207;DHT22;41079;52.856;6.534;2022-10-17T13:30:29;16.50;99.90
55207;DHT22;41079;52.856;6.534;2022-10-17T13:32:55;16.40;99.90
55207;DHT22;41079;52.856;6.534;2022-10-17T13:37:49;16.10;99.90
55207;DHT22;41079;52.856;6.534;2022-10-17T13:40:20;16.10;99.90
55207;DHT22;41079;52.856;6.534;2022-10-17T13:42:47;16.00;99.90
55207;DHT22;41079;52.856;6.534;2022-10-17T13:45:33;16.00;99.90
55207;DHT22;41079;52.856;6.534;2022-10-17T13:48:21;16.00;99.90
55207;DHT22;41079;52.856;6.534;2022-10-17T13:50:50;16.00;99.90
55207;DHT22;41079;52.856;6.534;2022-10-17T13:53:28;16.00;99.90
55207;DHT22;41079;52.856;6.534;2022-10-17T13:56:17;15.90;99.90
55207;DHT22;41079;52.856;6.534;2022-10-17T13:58:56;15.80;99.90
55207;DHT22;41079;52.856;6.534;2022-10-17T14:01:26;15.80;99.90
55207;DHT22;41079;52.856;6.534;2022-10-17T14:03:53;15.70;99.90
55207;DHT22;41079;52.856;6.534;2022-10-17T14:06:23;15.60;99.90
55207;DHT22;41079;52.856;6.534;2022-10-17T14:09:19;15.60;99.90
55207;DHT22;41079;52.856;6.534;2022-10-17T14:11:56;15.50;99.90
55207;DHT22;41079;52.856;6.534;2022-10-17T14:14:24;15.40;99.90
55207;DHT22;41079;52.856;6.534;2022-10-17T14:16:51;15.40;99.90
55207;DHT22;41079;52.856;6.534;2022-10-17T14:19:31;15.30;99.90
55207;DHT22;41079;52.856;6.534;2022-10-17T14:22:16;15.30;99.90
55207;DHT22;41079;52.856;6.534;2022-10-17T14:24:42;15.30;99.90
55207;DHT22;41079;52.856;6.534;2022-10-17T14:27:31;15.30;99.90
55207;DHT22;41079;52.856;6.534;2022-10-17T14:30:03;15.20;99.90
55207;DHT22;41079;52.856;6.534;2022-10-17T14:32:34;15.20;99.90
55207;DHT22;41079;52.856;6.534;2022-10-17T14:35:02;15.20;99.90
55207;DHT22;41079;52.856;6.534;2022-10-17T14:37:46;15.20;99.90
55207;DHT22;41079;52.856;6.534;2022-10-17T14:40:21;15.20;99.90
55207;DHT22;41079;52.856;6.534;2022-10-17T14:42:56;15.20;99.90
55207;DHT22;41079;52.856;6.534;2022-10-17T14:45:26;15.20;99.90
55207;DHT22;41079;52.856;6.534;2022-10-17T14:47:55;15.20;99.90
55207;DHT22;41079;52.856;6.534;2022-10-17T14:50:29;15.20;99.90
55207;DHT22;41079;52.856;6.534;2022-10-17T14:55:37;15.20;99.90
55207;DHT22;41079;52.856;6.534;2022-10-17T14:58:17;15.10;99.90
55207;DHT22;41079;52.856;6.534;2022-10-17T15:00:43;15.20;99.90
55207;DHT22;41079;52.856;6.534;2022-10-17T15:03:08;15.20;99.90
55207;DHT22;41079;52.856;6.534;2022-10-17T15:05:34;15.20;99.90
55207;DHT22;41079;52.856;6.534;2022-10-17T15:08:00;15.20;99.90
55207;DHT22;41079;52.856;6.534;2022-10-17T15:10:34;15.20;99.90
55207;DHT22;41079;52.856;6.534;2022-10-17T15:13:01;15.20;99.90
55207;DHT22;41079;52.856;6.534;2022-10-17T15:15:28;15.20;99.90
55207;DHT22;41079;52.856;6.534;2022-10-17T15:17:54;15.30;99.90
55207;DHT22;41079;52.856;6.534;2022-10-17T15:20:20;15.30;99.90
55207;DHT22;41079;52.856;6.534;2022-10-17T15:22:51;15.30;99.90
55207;DHT22;41079;52.856;6.534;2022-10-17T15:25:17;15.40;99.90
55207;DHT22;41079;52.856;6.534;2022-10-17T15:27:43;15.40;99.90
55207;DHT22;41079;52.856;6.534;2022-10-17T15:30:23;15.50;99.90
55207;DHT22;41079;52.856;6.534;2022-10-17T15:32:49;15.50;99.90
55207;DHT22;41079;52.856;6.534;2022-10-17T15:35:16;15.50;99.90
55207;DHT22;41079;52.856;6.534;2022-10-17T15:37:42;15.50;99.90
55207;DHT22;41079;52.856;6.534;2022-10-17T15:40:14;15.50;99.90
55207;DHT22;41079;52.856;6.534;2022-10-17T15:42:40;15.40;99.90
55207;DHT22;41079;52.856;6.534;2022-10-17T15:45:07;15.40;99.90
55207;DHT22;41079;52.856;6.534;2022-10-17T15:47:32;15.40;99.90
55207;DHT22;41079;52.856;6.534;2022-10-17T15:49:59;15.30;99.90
55207;DHT22;41079;52.856;6.534;2022-10-17T15:52:25;15.30;99.90
55207;DHT22;41079;52.856;6.534;2022-10-17T15:54:51;15.30;99.90
55207;DHT22;41079;52.856;6.534;2022-10-17T15:57:21;15.20;99.90
55207;DHT22;41079;52.856;6.534;2022-10-17T15:59:47;15.20;99.90
55207;DHT22;41079;52.856;6.534;2022-10-17T16:02:15;15.20;99.90
55207;DHT22;41079;52.856;6.534;2022-10-17T16:04:41;15.10;99.90
55207;DHT22;41079;52.856;6.534;2022-10-17T16:07:07;15.10;99.90
55207;DHT22;41079;52.856;6.534;2022-10-17T16:09:34;15.10;99.90
55207;DHT22;41079;52.856;6.534;2022-10-17T16:12:02;15.10;99.90
55207;DHT22;41079;52.856;6.534;2022-10-17T16:14:28;15.10;99.90
55207;DHT22;41079;52.856;6.534;2022-10-17T16:16:56;15.00;99.90
55207;DHT22;41079;52.856;6.534;2022-10-17T16:19:21;15.00;99.90
55207;DHT22;41079;52.856;6.534;2022-10-17T16:21:48;15.00;99.90
55207;DHT22;41079;52.856;6.534;2022-10-17T16:24:13;14.90;99.90
55207;DHT22;41079;52.856;6.534;2022-10-17T16:26:39;14.80;99.90
55207;DHT22;41079;52.856;6.534;2022-10-17T16:29:05;14.80;99.90
55207;DHT22;41079;52.856;6.534;2022-10-17T16:31:33;14.80;99.90
55207;DHT22;41079;52.856;6.534;2022-10-17T16:34:00;14.70;99.90
55207;DHT22;41079;52.856;6.534;2022-10-17T16:36:26;14.70;99.90
55207;DHT22;41079;52.856;6.534;2022-10-17T16:38:52;14.70;99.90
55207;DHT22;41079;52.856;6.534;2022-10-17T16:41:28;14.70;99.90
55207;DHT22;41079;52.856;6.534;2022-10-17T16:43:56;14.70;99.90
55207;DHT22;41079;52.856;6.534;2022-10-17T16:46:23;14.60;99.90
55207;DHT22;41079;52.856;6.534;2022-10-17T16:48:49;14.60;99.90
55207;DHT22;41079;52.856;6.534;2022-10-17T16:51:16;14.60;99.90
55207;DHT22;41079;52.856;6.534;2022-10-17T16:53:43;14.50;99.90
55207;DHT22;41079;52.856;6.534;2022-10-17T16:56:14;14.50;99.90
55207;DHT22;41079;52.856;6.534;2022-10-17T16:58:41;14.50;99.90
55207;DHT22;41079;52.856;6.534;2022-10-17T17:01:12;14.50;99.90
55207;DHT22;41079;52.856;6.534;2022-10-17T17:03:39;14.40;99.90
55207;DHT22;41079;52.856;6.534;2022-10-17T17:06:07;14.40;99.90
55207;DHT22;41079;52.856;6.534;2022-10-17T17:08:34;14.40;99.90
55207;DHT22;41079;52.856;6.534;2022-10-17T17:11:04;14.40;99.90
55207;DHT22;41079;52.856;6.534;2022-10-17T17:13:30;14.40;99.90
55207;DHT22;41079;52.856;6.534;2022-10-17T17:16:11;14.40;99.90
55207;DHT22;41079;52.856;6.534;2022-10-17T17:18:37;14.40;99.90
55207;DHT22;41079;52.856;6.534;2022-10-17T17:21:05;14.40;99.90
55207;DHT22;41079;52.856;6.534;2022-10-17T17:23:33;14.40;99.90
55207;DHT22;41079;52.856;6.534;2022-10-17T17:26:04;14.40;99.90
55207;DHT22;41079;52.856;6.534;2022-10-17T17:28:31;14.30;99.90
55207;DHT22;41079;52.856;6.534;2022-10-17T17:30:57;14.30;99.90